Time;durP1;ratioP1;P1;durP2;ratioP2;P2;SDS_P1;SDS_P2;PMS_P1;PMS_P2;Temp;Humidity;BMP_temperature;BMP_pressure;BME280_temperature;BME280_humidity;BME280_pressure;Samples;Min_cycle;Max_cycle;Signal;HPM_P1;HPM_P2
2023/10/28 00:01:46;;;;;;;;;;;11.40;99.90;;;;;;5022076;28;19967;-78
2023/10/28 00:04:14;;;;;;;;;;;11.40;99.90;;;;;;5021478;28;19990;-78
2023/10/28 00:06:41;;;;;;;;;;;11.40;99.90;;;;;;5022359;28;19972;-78
2023/10/28 00:09:10;;;;;;;;;;;11.30;99.90;;;;;;5024094;28;20360;-79
2023/10/28 00:11:38;;;;;;;;;;;11.40;99.90;;;;;;5031263;28;19968;-78
2023/10/28 00:14:06;;;;;;;;;;;11.40;99.90;;;;;;5020497;28;19963;-79
2023/10/28 00:16:36;;;;;;;;;;;11.50;99.90;;;;;;5020801;28;20010;-78
2023/10/28 00:19:07;;;;;;;;;;;11.50;99.90;;;;;;5024861;28;20005;-78
2023/10/28 00:21:35;;;;;;;;;;;11.50;99.90;;;;;;5022729;28;19967;-77
2023/10/28 00:24:03;;;;;;;;;;;11.60;99.90;;;;;;5019883;28;19971;-78
2023/10/28 00:26:31;;;;;;;;;;;11.60;99.90;;;;;;5019893;28;20018;-78
2023/10/28 00:28:59;;;;;;;;;;;11.60;99.90;;;;;;5022798;28;19967;-78
2023/10/28 00:31:28;;;;;;;;;;;11.60;99.90;;;;;;5031498;28;19974;-77
2023/10/28 00:33:58;;;;;;;;;;;11.60;99.90;;;;;;5020013;28;19979;-77
2023/10/28 00:36:25;;;;;;;;;;;11.50;99.90;;;;;;5026761;28;20057;-78
2023/10/28 00:38:54;;;;;;;;;;;11.60;99.90;;;;;;5022704;28;20013;-77
2023/10/28 00:41:22;;;;;;;;;;;11.60;99.90;;;;;;5023217;28;19967;-78
2023/10/28 00:43:49;;;;;;;;;;;11.60;99.90;;;;;;5021179;28;19989;-77
2023/10/28 00:46:17;;;;;;;;;;;11.60;99.90;;;;;;5019967;28;19968;-77
2023/10/28 00:48:45;;;;;;;;;;;11.60;99.90;;;;;;5021965;28;19963;-77
2023/10/28 00:51:14;;;;;;;;;;;11.50;99.90;;;;;;5022855;28;19971;-78
2023/10/28 00:53:42;;;;;;;;;;;11.50;99.90;;;;;;5022139;28;19971;-78
2023/10/28 00:56:11;;;;;;;;;;;11.50;99.90;;;;;;5019708;28;19967;-78
2023/10/28 00:58:40;;;;;;;;;;;11.60;99.90;;;;;;5019915;28;19968;-78
2023/10/28 01:01:10;;;;;;;;;;;11.50;99.90;;;;;;5023169;28;20050;-78
2023/10/28 01:03:40;;;;;;;;;;;11.50;99.90;;;;;;5024791;28;19987;-80
2023/10/28 01:06:09;;;;;;;;;;;11.60;99.90;;;;;;5019388;28;20509;-77
2023/10/28 01:08:39;;;;;;;;;;;11.70;99.90;;;;;;5022213;28;19967;-79
2023/10/28 01:11:06;;;;;;;;;;;11.70;99.90;;;;;;5019878;28;19970;-79
2023/10/28 01:13:34;;;;;;;;;;;11.80;99.90;;;;;;5035582;28;20062;-83
2023/10/28 01:16:02;;;;;;;;;;;11.70;99.90;;;;;;5023591;28;20017;-78
2023/10/28 01:18:30;;;;;;;;;;;11.70;99.90;;;;;;5024236;28;20370;-79
2023/10/28 01:20:58;;;;;;;;;;;11.80;99.90;;;;;;5034414;28;20018;-79
2023/10/28 01:23:27;;;;;;;;;;;11.70;99.90;;;;;;5028406;28;19974;-78
2023/10/28 01:25:55;;;;;;;;;;;11.60;99.90;;;;;;5033565;28;19968;-82
2023/10/28 01:28:23;;;;;;;;;;;11.40;99.90;;;;;;5026367;28;19977;-79
2023/10/28 01:30:50;;;;;;;;;;;11.30;99.90;;;;;;5026618;28;19971;-78
2023/10/28 01:33:19;;;;;;;;;;;11.20;99.90;;;;;;5034799;28;20461;-78
2023/10/28 01:35:47;;;;;;;;;;;11.10;99.90;;;;;;5018379;28;19968;-76
2023/10/28 01:38:15;;;;;;;;;;;11.20;99.90;;;;;;5024134;28;19967;-79
2023/10/28 01:40:44;;;;;;;;;;;11.10;99.90;;;;;;5024904;28;19971;-80
2023/10/28 01:43:14;;;;;;;;;;;11.00;99.90;;;;;;5025578;28;19971;-79
2023/10/28 01:45:42;;;;;;;;;;;11.10;99.90;;;;;;5023718;28;19971;-79
2023/10/28 01:48:10;;;;;;;;;;;11.00;99.90;;;;;;5030505;28;20333;-80
2023/10/28 01:50:37;;;;;;;;;;;11.00;99.90;;;;;;5034073;28;19974;-81
2023/10/28 01:53:05;;;;;;;;;;;10.90;99.90;;;;;;5030119;28;19963;-81
2023/10/28 01:55:33;;;;;;;;;;;11.00;99.90;;;;;;5029955;28;20338;-79
2023/10/28 01:58:02;;;;;;;;;;;10.90;99.90;;;;;;5037964;28;21136;-82
2023/10/28 02:00:31;;;;;;;;;;;10.90;99.90;;;;;;5028945;28;19967;-81
2023/10/28 02:03:00;;;;;;;;;;;10.90;99.90;;;;;;5040226;28;19963;-82
2023/10/28 02:05:28;;;;;;;;;;;10.90;99.90;;;;;;5029782;28;19967;-80
2023/10/28 02:07:55;;;;;;;;;;;11.00;99.90;;;;;;5040424;28;19967;-80
2023/10/28 02:10:23;;;;;;;;;;;11.00;99.90;;;;;;5030356;28;19967;-81
2023/10/28 02:12:51;;;;;;;;;;;11.00;99.90;;;;;;5024588;28;19967;-78
2023/10/28 02:15:20;;;;;;;;;;;11.00;99.90;;;;;;5028348;28;19968;-83
2023/10/28 02:17:48;;;;;;;;;;;11.00;99.90;;;;;;5030633;28;19967;-83
2023/10/28 02:20:16;;;;;;;;;;;11.00;99.90;;;;;;5026888;28;20434;-82
2023/10/28 02:22:44;;;;;;;;;;;11.00;99.90;;;;;;5040455;28;19978;-84
2023/10/28 02:25:14;;;;;;;;;;;11.00;99.90;;;;;;5029958;28;19968;-81
2023/10/28 02:27:41;;;;;;;;;;;11.00;99.90;;;;;;5032618;28;19968;-80
2023/10/28 02:30:11;;;;;;;;;;;11.00;99.90;;;;;;5042822;28;20352;-81
2023/10/28 02:32:40;;;;;;;;;;;11.00;99.90;;;;;;5034789;28;20028;-80
2023/10/28 02:35:09;;;;;;;;;;;11.00;99.90;;;;;;5023413;28;19980;-77
2023/10/28 02:37:36;;;;;;;;;;;11.10;99.90;;;;;;5021848;28;19967;-80
2023/10/28 02:40:06;;;;;;;;;;;11.00;99.90;;;;;;5024629;28;19971;-78
2023/10/28 02:42:34;;;;;;;;;;;11.00;99.90;;;;;;5025676;28;20021;-78
2023/10/28 02:45:01;;;;;;;;;;;11.00;99.90;;;;;;5029879;28;19966;-78
2023/10/28 02:47:30;;;;;;;;;;;11.00;99.90;;;;;;5022018;28;19972;-79
2023/10/28 02:50:00;;;;;;;;;;;11.00;99.90;;;;;;5021860;28;20410;-78
2023/10/28 02:52:27;;;;;;;;;;;10.90;99.90;;;;;;5025060;28;20133;-78
2023/10/28 02:54:55;;;;;;;;;;;11.00;99.90;;;;;;5025029;28;20656;-78
2023/10/28 02:57:23;;;;;;;;;;;10.90;99.90;;;;;;5021507;28;19968;-78
2023/10/28 02:59:51;;;;;;;;;;;10.90;99.90;;;;;;5021631;28;19972;-78
2023/10/28 03:02:18;;;;;;;;;;;10.90;99.90;;;;;;5025315;28;19975;-77
2023/10/28 03:04:46;;;;;;;;;;;10.80;99.90;;;;;;5024656;28;20077;-76
2023/10/28 03:07:16;;;;;;;;;;;10.80;99.90;;;;;;5021191;28;20516;-77
2023/10/28 03:09:43;;;;;;;;;;;10.80;99.90;;;;;;5021044;28;20410;-77
2023/10/28 03:12:12;;;;;;;;;;;10.70;99.90;;;;;;5024738;28;20018;-76
2023/10/28 03:14:43;;;;;;;;;;;10.70;99.90;;;;;;5024194;28;19974;-77
2023/10/28 03:17:11;;;;;;;;;;;10.60;99.90;;;;;;5021449;28;19974;-77
2023/10/28 03:19:38;;;;;;;;;;;10.60;99.90;;;;;;5014261;28;20326;-76
2023/10/28 03:22:06;;;;;;;;;;;10.60;99.90;;;;;;5021001;28;20054;-76
2023/10/28 03:24:35;;;;;;;;;;;10.50;99.90;;;;;;5020511;28;19963;-77
2023/10/28 03:27:03;;;;;;;;;;;10.50;99.90;;;;;;5028839;28;19971;-76
2023/10/28 03:29:31;;;;;;;;;;;10.60;99.90;;;;;;5026131;28;20439;-77
2023/10/28 03:31:59;;;;;;;;;;;10.60;99.90;;;;;;5024641;28;19970;-78
2023/10/28 03:34:27;;;;;;;;;;;10.60;99.90;;;;;;5024299;28;19963;-79
2023/10/28 03:36:55;;;;;;;;;;;10.60;99.90;;;;;;5023699;28;19971;-79
2023/10/28 03:39:22;;;;;;;;;;;10.60;99.90;;;;;;5020731;28;19968;-78
2023/10/28 03:41:51;;;;;;;;;;;10.60;99.90;;;;;;5020662;28;20384;-80
2023/10/28 03:44:19;;;;;;;;;;;10.60;99.90;;;;;;5018484;28;20433;-78
2023/10/28 03:46:47;;;;;;;;;;;10.60;99.90;;;;;;5024152;28;19975;-78
2023/10/28 03:49:15;;;;;;;;;;;10.70;99.90;;;;;;5019345;28;20087;-78
2023/10/28 03:51:44;;;;;;;;;;;10.70;99.90;;;;;;5020684;28;19964;-79
2023/10/28 03:54:12;;;;;;;;;;;10.70;99.90;;;;;;5023839;28;19976;-80
2023/10/28 03:56:39;;;;;;;;;;;10.70;99.90;;;;;;5030316;28;20033;-78
2023/10/28 03:59:08;;;;;;;;;;;10.70;99.90;;;;;;5026097;28;19964;-79
2023/10/28 04:01:36;;;;;;;;;;;10.70;99.90;;;;;;5026010;28;19986;-79
2023/10/28 04:04:04;;;;;;;;;;;10.70;99.90;;;;;;5026680;28;19964;-79
2023/10/28 04:06:33;;;;;;;;;;;10.80;99.90;;;;;;5022274;28;20499;-79
2023/10/28 04:09:00;;;;;;;;;;;10.70;99.90;;;;;;5022868;28;19967;-78
2023/10/28 04:11:28;;;;;;;;;;;10.70;99.90;;;;;;5021144;28;20017;-78
2023/10/28 04:13:56;;;;;;;;;;;10.70;99.90;;;;;;5022941;28;20108;-78
2023/10/28 04:16:26;;;;;;;;;;;10.70;99.90;;;;;;5024764;28;19963;-78
2023/10/28 04:18:53;;;;;;;;;;;10.80;99.90;;;;;;5023945;28;20465;-78
2023/10/28 04:21:21;;;;;;;;;;;10.70;99.90;;;;;;5021841;28;19963;-77
2023/10/28 04:23:49;;;;;;;;;;;10.70;99.90;;;;;;5020303;28;20442;-76
2023/10/28 04:26:17;;;;;;;;;;;10.70;99.90;;;;;;5030004;28;20013;-76
2023/10/28 04:28:44;;;;;;;;;;;10.70;99.90;;;;;;5031529;28;19963;-79
2023/10/28 04:31:12;;;;;;;;;;;10.70;99.90;;;;;;5031194;28;19977;-76
2023/10/28 04:33:41;;;;;;;;;;;10.70;99.90;;;;;;5032157;28;19970;-77
2023/10/28 04:36:10;;;;;;;;;;;10.70;99.90;;;;;;5015121;28;19975;-77
2023/10/28 04:38:40;;;;;;;;;;;10.80;99.90;;;;;;5031447;28;19967;-77
2023/10/28 04:41:09;;;;;;;;;;;10.80;99.90;;;;;;5028418;28;19967;-76
2023/10/28 04:43:37;;;;;;;;;;;10.80;99.90;;;;;;5028477;28;19967;-76
2023/10/28 04:46:05;;;;;;;;;;;10.90;99.90;;;;;;5035305;28;20029;-76
2023/10/28 04:48:35;;;;;;;;;;;10.90;99.90;;;;;;5033925;28;19971;-77
2023/10/28 04:51:05;;;;;;;;;;;11.00;99.90;;;;;;5032593;28;19963;-77
2023/10/28 04:53:33;;;;;;;;;;;10.90;99.90;;;;;;5033648;28;20009;-78
2023/10/28 04:56:01;;;;;;;;;;;10.90;99.90;;;;;;5026755;28;20124;-77
2023/10/28 04:58:28;;;;;;;;;;;10.90;99.90;;;;;;5030451;28;19971;-78
2023/10/28 05:00:56;;;;;;;;;;;11.00;99.90;;;;;;5030523;28;20926;-79
2023/10/28 05:03:24;;;;;;;;;;;11.10;99.90;;;;;;5026635;28;20032;-79
2023/10/28 05:05:52;;;;;;;;;;;11.10;99.90;;;;;;5034119;28;20057;-77
2023/10/28 05:08:21;;;;;;;;;;;11.10;99.90;;;;;;5034017;28;19967;-77
2023/10/28 05:10:49;;;;;;;;;;;11.20;99.90;;;;;;5029731;28;20041;-78
2023/10/28 05:13:16;;;;;;;;;;;11.20;99.90;;;;;;5025662;28;20050;-79
2023/10/28 05:15:44;;;;;;;;;;;11.20;99.90;;;;;;5026216;28;19963;-78
2023/10/28 05:18:14;;;;;;;;;;;11.30;99.90;;;;;;5034074;28;20515;-77
2023/10/28 05:20:41;;;;;;;;;;;11.30;99.90;;;;;;5033624;28;19967;-77
2023/10/28 05:23:09;;;;;;;;;;;11.40;99.90;;;;;;5031968;28;19982;-78
2023/10/28 05:25:38;;;;;;;;;;;11.40;99.90;;;;;;5026135;28;20391;-79
2023/10/28 05:28:06;;;;;;;;;;;11.50;99.90;;;;;;5033549;28;19971;-78
2023/10/28 05:30:34;;;;;;;;;;;11.40;99.90;;;;;;5028136;28;19970;-78
2023/10/28 05:33:02;;;;;;;;;;;11.40;99.90;;;;;;5030405;28;20374;-78
2023/10/28 05:35:30;;;;;;;;;;;11.30;99.90;;;;;;5033707;28;19998;-78
2023/10/28 05:37:59;;;;;;;;;;;11.10;99.90;;;;;;5034352;28;20367;-79
2023/10/28 05:40:27;;;;;;;;;;;11.10;99.90;;;;;;5029961;28;20006;-79
2023/10/28 05:42:56;;;;;;;;;;;11.10;99.90;;;;;;5038105;28;20040;-80
2023/10/28 05:45:24;;;;;;;;;;;11.10;99.90;;;;;;5037208;28;19969;-77
2023/10/28 05:47:52;;;;;;;;;;;11.00;99.90;;;;;;5031147;28;19971;-78
2023/10/28 05:50:20;;;;;;;;;;;11.00;99.90;;;;;;5034537;28;20461;-77
2023/10/28 05:52:48;;;;;;;;;;;11.10;99.90;;;;;;5031021;28;20367;-79
2023/10/28 05:55:16;;;;;;;;;;;11.00;99.90;;;;;;5034221;28;20449;-78
2023/10/28 05:57:44;;;;;;;;;;;11.00;99.90;;;;;;5034097;28;19967;-77
2023/10/28 06:00:14;;;;;;;;;;;11.00;99.90;;;;;;5033870;28;20341;-78
2023/10/28 06:02:43;;;;;;;;;;;10.90;99.90;;;;;;5034434;28;20021;-78
2023/10/28 06:05:10;;;;;;;;;;;10.80;99.90;;;;;;5032110;28;19967;-78
2023/10/28 06:07:39;;;;;;;;;;;10.80;99.90;;;;;;5034421;28;20169;-78
2023/10/28 06:10:10;;;;;;;;;;;10.70;99.90;;;;;;5034009;28;19967;-79
2023/10/28 06:12:38;;;;;;;;;;;10.70;99.90;;;;;;5034265;28;19963;-78
2023/10/28 06:15:06;;;;;;;;;;;10.70;99.90;;;;;;5033927;28;19963;-79
2023/10/28 06:17:35;;;;;;;;;;;10.70;99.90;;;;;;5029118;28;19964;-80
2023/10/28 06:20:05;;;;;;;;;;;10.70;99.90;;;;;;5022191;28;19963;-78
2023/10/28 06:22:34;;;;;;;;;;;10.80;99.90;;;;;;5010755;28;20340;-79
2023/10/28 06:25:02;;;;;;;;;;;10.70;99.90;;;;;;5035131;28;19963;-78
2023/10/28 06:27:32;;;;;;;;;;;10.80;99.90;;;;;;5028023;28;19995;-79
2023/10/28 06:30:00;;;;;;;;;;;10.80;99.90;;;;;;5025802;28;19963;-79
2023/10/28 06:32:28;;;;;;;;;;;10.80;99.90;;;;;;5034050;28;19964;-77
2023/10/28 06:34:57;;;;;;;;;;;10.80;99.90;;;;;;5028324;28;19995;-79
2023/10/28 06:37:25;;;;;;;;;;;10.70;99.90;;;;;;5032651;28;20507;-69
2023/10/28 06:39:53;;;;;;;;;;;10.80;99.90;;;;;;5023042;28;19968;-70
2023/10/28 06:42:21;;;;;;;;;;;10.80;99.90;;;;;;5022817;28;19971;-69
2023/10/28 06:44:51;;;;;;;;;;;10.70;99.90;;;;;;5031766;28;20317;-68
2023/10/28 06:47:18;;;;;;;;;;;10.70;99.90;;;;;;5032038;28;19967;-69
2023/10/28 06:49:46;;;;;;;;;;;10.70;99.90;;;;;;5031920;28;19975;-69
2023/10/28 06:52:16;;;;;;;;;;;10.70;99.90;;;;;;5028870;28;20450;-70
2023/10/28 06:54:44;;;;;;;;;;;10.70;99.90;;;;;;5029029;28;19975;-71
2023/10/28 06:57:11;;;;;;;;;;;10.70;99.90;;;;;;5022347;28;19971;-71
2023/10/28 06:59:40;;;;;;;;;;;10.70;99.90;;;;;;5022311;28;19994;-69
2023/10/28 07:02:08;;;;;;;;;;;10.70;99.90;;;;;;5021691;28;19975;-72
2023/10/28 07:04:35;;;;;;;;;;;10.70;99.90;;;;;;5020417;28;19967;-70
2023/10/28 07:07:04;;;;;;;;;;;10.70;99.90;;;;;;5022320;28;21166;-70
2023/10/28 07:09:35;;;;;;;;;;;10.70;99.90;;;;;;5022563;28;19971;-73
2023/10/28 07:12:03;;;;;;;;;;;10.80;99.90;;;;;;5019712;28;19982;-70
2023/10/28 07:14:31;;;;;;;;;;;10.80;99.90;;;;;;5021030;28;20555;-69
2023/10/28 07:16:59;;;;;;;;;;;10.80;99.90;;;;;;5022216;28;20180;-72
2023/10/28 07:19:27;;;;;;;;;;;10.80;99.90;;;;;;5021299;28;19971;-72
2023/10/28 07:21:55;;;;;;;;;;;10.80;99.90;;;;;;5021332;28;19967;-69
2023/10/28 07:24:22;;;;;;;;;;;10.80;99.90;;;;;;5020521;28;19971;-69
2023/10/28 07:26:52;;;;;;;;;;;10.80;99.90;;;;;;5021955;28;19971;-70
2023/10/28 07:29:20;;;;;;;;;;;10.80;99.90;;;;;;5021453;28;19971;-70
2023/10/28 07:31:47;;;;;;;;;;;10.90;99.90;;;;;;5020953;28;20078;-72
2023/10/28 07:34:15;;;;;;;;;;;10.90;99.90;;;;;;5019271;28;19975;-70
2023/10/28 07:36:43;;;;;;;;;;;10.90;99.90;;;;;;5022296;28;19963;-69
2023/10/28 07:39:11;;;;;;;;;;;10.90;99.90;;;;;;5020735;28;19967;-71
2023/10/28 07:41:39;;;;;;;;;;;10.90;99.90;;;;;;5021024;28;19971;-72
2023/10/28 07:44:08;;;;;;;;;;;10.90;99.90;;;;;;5021651;28;19978;-68
2023/10/28 07:46:36;;;;;;;;;;;11.00;99.90;;;;;;5020177;28;20528;-72
2023/10/28 07:49:04;;;;;;;;;;;11.00;99.90;;;;;;5020596;28;20033;-69
2023/10/28 07:51:35;;;;;;;;;;;11.00;99.90;;;;;;5021737;28;19998;-70
2023/10/28 07:54:03;;;;;;;;;;;11.00;99.90;;;;;;5021728;28;19963;-72
2023/10/28 07:56:32;;;;;;;;;;;11.10;99.90;;;;;;5022624;28;20019;-70
2023/10/28 07:59:01;;;;;;;;;;;11.00;99.90;;;;;;5022290;28;19977;-73
2023/10/28 08:01:30;;;;;;;;;;;11.00;99.90;;;;;;5020870;28;20473;-69
2023/10/28 08:03:59;;;;;;;;;;;11.00;99.90;;;;;;5020149;28;19986;-69
2023/10/28 08:06:27;;;;;;;;;;;11.10;99.90;;;;;;5020928;28;20356;-74
2023/10/28 08:09:04;;;;;;;;;;;11.10;99.90;;;;;;5021352;28;20062;-69
2023/10/28 08:11:33;;;;;;;;;;;11.10;99.90;;;;;;5021886;28;20021;-69
2023/10/28 08:14:03;;;;;;;;;;;11.10;99.90;;;;;;5022635;28;19971;-70
2023/10/28 08:16:34;;;;;;;;;;;11.10;99.90;;;;;;5021188;28;19979;-69
2023/10/28 08:19:04;;;;;;;;;;;11.10;99.90;;;;;;5019566;28;19967;-73
2023/10/28 08:21:32;;;;;;;;;;;11.20;99.90;;;;;;5020126;28;19971;-70
2023/10/28 08:24:00;;;;;;;;;;;11.20;99.90;;;;;;5020857;28;20450;-69
2023/10/28 08:26:28;;;;;;;;;;;11.20;99.90;;;;;;5021037;28;20459;-69
2023/10/28 08:28:56;;;;;;;;;;;11.20;99.90;;;;;;5019804;28;19978;-70
2023/10/28 08:31:24;;;;;;;;;;;11.30;99.90;;;;;;5020430;28;20015;-71
2023/10/28 08:33:53;;;;;;;;;;;11.30;99.90;;;;;;5020660;28;19963;-70
2023/10/28 08:36:21;;;;;;;;;;;11.30;99.90;;;;;;5030502;28;19963;-70
2023/10/28 08:38:49;;;;;;;;;;;11.30;99.90;;;;;;5030184;28;19963;-69
2023/10/28 08:41:19;;;;;;;;;;;11.30;99.90;;;;;;5030242;28;19986;-73
2023/10/28 08:43:47;;;;;;;;;;;11.40;99.90;;;;;;5030242;28;19967;-70
2023/10/28 08:46:16;;;;;;;;;;;11.40;99.90;;;;;;5030182;28;19967;-69
2023/10/28 08:48:44;;;;;;;;;;;11.40;99.90;;;;;;5023242;28;19963;-70
2023/10/28 08:51:15;;;;;;;;;;;11.40;99.90;;;;;;5031015;28;19967;-70
2023/10/28 08:53:44;;;;;;;;;;;11.40;99.90;;;;;;5013964;28;19971;-72
2023/10/28 08:56:14;;;;;;;;;;;11.50;99.90;;;;;;5030506;28;19968;-70
2023/10/28 08:58:41;;;;;;;;;;;11.50;99.90;;;;;;5031062;28;20058;-71
2023/10/28 09:01:09;;;;;;;;;;;11.50;99.90;;;;;;5031119;28;19974;-70
2023/10/28 09:03:40;;;;;;;;;;;11.50;99.90;;;;;;5031035;28;19967;-70
2023/10/28 09:06:08;;;;;;;;;;;11.60;99.90;;;;;;5031105;28;19970;-67
2023/10/28 09:08:38;;;;;;;;;;;11.60;99.90;;;;;;5030994;28;20403;-70
2023/10/28 09:11:06;;;;;;;;;;;11.60;99.90;;;;;;5030854;28;19963;-70
2023/10/28 09:13:34;;;;;;;;;;;11.60;99.90;;;;;;5030980;28;20021;-70
2023/10/28 09:16:03;;;;;;;;;;;11.60;99.90;;;;;;5030595;28;20033;-68
2023/10/28 09:18:37;;;;;;;;;;;11.60;99.90;;;;;;5030904;28;20065;-72
2023/10/28 09:21:06;;;;;;;;;;;11.60;99.90;;;;;;5031086;28;19986;-71
2023/10/28 09:23:34;;;;;;;;;;;11.60;99.90;;;;;;5030687;28;20033;-70
2023/10/28 09:26:04;;;;;;;;;;;11.60;99.90;;;;;;5030496;28;20013;-71
2023/10/28 09:28:32;;;;;;;;;;;11.60;99.90;;;;;;5032202;28;19974;-69
2023/10/28 09:31:00;;;;;;;;;;;11.60;99.90;;;;;;5034384;28;19970;-70
2023/10/28 09:33:28;;;;;;;;;;;11.60;99.90;;;;;;5034407;28;19967;-70
2023/10/28 09:35:57;;;;;;;;;;;11.60;99.90;;;;;;5034080;28;20458;-70
2023/10/28 09:38:24;;;;;;;;;;;11.80;99.90;;;;;;5034234;28;19967;-70
2023/10/28 09:40:53;;;;;;;;;;;11.80;99.90;;;;;;5034049;28;19963;-70
2023/10/28 09:43:23;;;;;;;;;;;11.90;99.90;;;;;;5034303;28;20010;-70
2023/10/28 09:45:51;;;;;;;;;;;12.00;99.90;;;;;;5026075;28;20383;-70
2023/10/28 09:48:19;;;;;;;;;;;12.10;99.90;;;;;;5034153;28;19967;-70
2023/10/28 09:50:48;;;;;;;;;;;12.20;99.90;;;;;;5033869;28;19967;-71
2023/10/28 09:53:17;;;;;;;;;;;12.30;99.90;;;;;;5034137;28;20310;-70
2023/10/28 09:55:46;;;;;;;;;;;12.40;99.90;;;;;;5033652;28;19967;-70
2023/10/28 09:58:19;;;;;;;;;;;12.50;99.90;;;;;;5034169;28;19968;-70
2023/10/28 10:00:50;;;;;;;;;;;12.50;99.90;;;;;;5033898;28;19970;-72
2023/10/28 10:03:27;;;;;;;;;;;12.60;99.90;;;;;;5034355;28;19967;-70
2023/10/28 10:05:55;;;;;;;;;;;12.70;99.90;;;;;;5033806;28;19964;-70
2023/10/28 10:08:23;;;;;;;;;;;12.90;99.90;;;;;;5033873;28;19967;-73
2023/10/28 10:10:52;;;;;;;;;;;12.90;99.90;;;;;;5025618;28;19982;-70
2023/10/28 10:13:20;;;;;;;;;;;13.00;99.90;;;;;;5033467;28;20461;-70
2023/10/28 10:15:55;;;;;;;;;;;13.00;99.90;;;;;;5030103;28;20423;-72
2023/10/28 10:18:30;;;;;;;;;;;13.00;99.90;;;;;;5022055;28;20013;-70
2023/10/28 10:21:09;;;;;;;;;;;13.00;99.90;;;;;;5049046;22;20446;-66
2023/10/28 10:23:42;;;;;;;;;;;13.00;99.90;;;;;;5048581;28;19971;-65
2023/10/28 10:26:20;;;;;;;;;;;13.00;99.90;;;;;;5052992;28;20350;-66
2023/10/28 10:28:48;;;;;;;;;;;13.00;99.90;;;;;;5053112;28;20013;-67
2023/10/28 10:31:20;;;;;;;;;;;13.10;99.90;;;;;;5047929;28;20013;-66
2023/10/28 10:33:59;;;;;;;;;;;13.10;99.90;;;;;;5033000;28;19967;-67
2023/10/28 10:36:29;;;;;;;;;;;13.10;99.90;;;;;;5033196;28;19967;-66
2023/10/28 10:38:56;;;;;;;;;;;13.20;99.90;;;;;;5017900;28;20532;-65
2023/10/28 10:41:27;;;;;;;;;;;13.20;99.90;;;;;;5031590;28;20033;-66
2023/10/28 10:43:55;;;;;;;;;;;13.20;99.90;;;;;;5017001;28;19969;-66
2023/10/28 10:46:24;;;;;;;;;;;13.20;99.90;;;;;;5032946;28;19975;-67
2023/10/28 10:48:52;;;;;;;;;;;13.30;99.90;;;;;;5032744;28;19963;-67
2023/10/28 10:51:19;;;;;;;;;;;13.30;99.90;;;;;;5032597;28;19967;-67
2023/10/28 10:53:47;;;;;;;;;;;13.30;99.90;;;;;;5032504;28;20387;-66
2023/10/28 10:56:18;;;;;;;;;;;13.30;99.90;;;;;;5032670;28;19971;-66
2023/10/28 10:58:46;;;;;;;;;;;13.30;99.90;;;;;;5032470;28;19967;-67
2023/10/28 11:01:15;;;;;;;;;;;13.30;99.90;;;;;;5032250;28;19967;-67
2023/10/28 11:03:44;;;;;;;;;;;13.30;99.90;;;;;;5032367;28;19967;-67
2023/10/28 11:06:12;;;;;;;;;;;13.30;99.90;;;;;;5032456;28;20196;-67
2023/10/28 11:08:40;;;;;;;;;;;13.30;99.90;;;;;;5032309;28;20018;-66
2023/10/28 11:11:08;;;;;;;;;;;13.30;99.90;;;;;;5031901;28;20009;-66
2023/10/28 11:13:36;;;;;;;;;;;13.30;99.90;;;;;;5032188;28;19968;-67
2023/10/28 11:16:04;;;;;;;;;;;13.30;99.90;;;;;;5032333;28;19963;-66
2023/10/28 11:18:33;;;;;;;;;;;13.30;99.90;;;;;;5032162;28;19975;-66
2023/10/28 11:21:03;;;;;;;;;;;13.30;99.90;;;;;;5031679;28;20018;-67
2023/10/28 11:23:31;;;;;;;;;;;13.40;99.90;;;;;;5032275;28;19967;-66
2023/10/28 11:26:03;;;;;;;;;;;13.40;99.90;;;;;;5016427;28;19966;-67
2023/10/28 11:28:32;;;;;;;;;;;13.50;99.90;;;;;;5032348;28;20043;-66
2023/10/28 11:31:00;;;;;;;;;;;13.50;99.90;;;;;;5015941;28;20013;-66
2023/10/28 11:33:28;;;;;;;;;;;13.60;99.90;;;;;;5031989;28;19971;-66
2023/10/28 11:35:57;;;;;;;;;;;13.70;99.90;;;;;;5031527;28;19969;-66
2023/10/28 11:38:26;;;;;;;;;;;13.70;99.90;;;;;;5031771;28;19971;-67
2023/10/28 11:41:02;;;;;;;;;;;13.80;99.90;;;;;;5031544;28;19978;-67
2023/10/28 11:43:30;;;;;;;;;;;13.90;99.90;;;;;;5031841;28;19967;-68
2023/10/28 11:45:58;;;;;;;;;;;13.80;99.90;;;;;;5031524;28;19963;-67
2023/10/28 11:48:25;;;;;;;;;;;13.80;99.90;;;;;;5031722;28;19971;-66
2023/10/28 11:50:53;;;;;;;;;;;13.70;99.90;;;;;;5030947;28;19965;-66
2023/10/28 11:53:23;;;;;;;;;;;13.60;99.90;;;;;;5031749;28;19971;-66
2023/10/28 11:55:52;;;;;;;;;;;13.50;99.90;;;;;;5031397;28;19967;-66
2023/10/28 11:58:22;;;;;;;;;;;13.50;99.90;;;;;;5031724;28;19971;-66
2023/10/28 12:00:50;;;;;;;;;;;13.50;99.90;;;;;;5030902;28;20012;-66
2023/10/28 12:03:18;;;;;;;;;;;13.50;99.90;;;;;;5031587;28;19974;-66
2023/10/28 12:05:46;;;;;;;;;;;13.40;99.90;;;;;;5031250;28;20111;-66
2023/10/28 12:08:14;;;;;;;;;;;13.40;99.90;;;;;;5031467;28;19925;-66
2023/10/28 12:10:43;;;;;;;;;;;13.30;99.90;;;;;;5019589;28;20408;-66
2023/10/28 12:13:13;;;;;;;;;;;13.30;99.90;;;;;;5013658;28;19932;-66
2023/10/28 12:15:42;;;;;;;;;;;13.20;99.90;;;;;;5015109;28;19929;-66
2023/10/28 12:18:09;;;;;;;;;;;13.20;99.90;;;;;;5015159;28;19925;-65
2023/10/28 12:20:38;;;;;;;;;;;13.20;99.90;;;;;;5013957;28;19933;-66
2023/10/28 12:23:05;;;;;;;;;;;13.20;99.90;;;;;;5012416;28;19933;-66
2023/10/28 12:25:34;;;;;;;;;;;13.10;99.90;;;;;;5010451;28;19988;-65
2023/10/28 12:28:02;;;;;;;;;;;13.10;99.90;;;;;;5016850;28;19925;-65
2023/10/28 12:30:31;;;;;;;;;;;13.10;99.90;;;;;;5014714;28;19929;-66
2023/10/28 12:32:59;;;;;;;;;;;13.10;99.90;;;;;;5013203;28;20331;-66
2023/10/28 12:35:27;;;;;;;;;;;13.10;99.90;;;;;;5011857;28;19930;-67
2023/10/28 12:37:54;;;;;;;;;;;13.10;99.90;;;;;;5013424;28;20545;-65
2023/10/28 12:40:22;;;;;;;;;;;13.10;99.90;;;;;;5012077;28;20064;-65
2023/10/28 12:42:50;;;;;;;;;;;13.10;99.90;;;;;;5012071;28;20706;-65
2023/10/28 12:45:18;;;;;;;;;;;13.10;99.90;;;;;;5015704;28;19996;-66
2023/10/28 12:47:48;;;;;;;;;;;13.10;99.90;;;;;;5011398;28;19925;-65
2023/10/28 12:50:17;;;;;;;;;;;13.10;99.90;;;;;;5012274;28;19926;-65
2023/10/28 12:52:45;;;;;;;;;;;13.10;99.90;;;;;;5010234;28;20019;-63
2023/10/28 12:55:13;;;;;;;;;;;13.10;99.90;;;;;;5017117;28;19929;-63
2023/10/28 12:57:41;;;;;;;;;;;13.10;99.90;;;;;;5019311;28;19988;-64
2023/10/28 13:00:10;;;;;;;;;;;13.10;99.90;;;;;;5016957;28;19933;-65
2023/10/28 13:02:38;;;;;;;;;;;13.10;99.90;;;;;;5012604;28;19933;-66
2023/10/28 13:05:07;;;;;;;;;;;13.10;99.90;;;;;;5021903;28;19925;-66
2023/10/28 13:07:35;;;;;;;;;;;13.00;99.90;;;;;;5015197;28;19933;-65
2023/10/28 13:10:03;;;;;;;;;;;12.90;99.90;;;;;;5015222;28;19925;-66
2023/10/28 13:12:31;;;;;;;;;;;12.80;99.90;;;;;;5014829;28;20351;-66
2023/10/28 13:14:58;;;;;;;;;;;12.70;99.90;;;;;;5014338;28;19926;-65
2023/10/28 13:17:26;;;;;;;;;;;12.60;99.90;;;;;;5014490;28;19926;-65
2023/10/28 13:19:53;;;;;;;;;;;12.60;99.90;;;;;;5016455;28;19925;-66
2023/10/28 13:22:22;;;;;;;;;;;12.50;99.90;;;;;;5018816;28;19975;-65
2023/10/28 13:24:50;;;;;;;;;;;12.50;99.90;;;;;;5011286;28;20488;-64
2023/10/28 13:27:18;;;;;;;;;;;12.50;99.90;;;;;;5014842;28;19936;-65
2023/10/28 13:29:46;;;;;;;;;;;12.40;99.90;;;;;;5016590;28;19925;-62
2023/10/28 13:32:14;;;;;;;;;;;12.40;99.90;;;;;;5015788;28;19926;-63
2023/10/28 13:34:42;;;;;;;;;;;12.40;99.90;;;;;;5013824;28;19926;-63
2023/10/28 13:37:09;;;;;;;;;;;12.30;99.90;;;;;;5017925;28;20471;-64
2023/10/28 13:39:38;;;;;;;;;;;12.30;99.90;;;;;;5018045;28;19980;-63
2023/10/28 13:42:07;;;;;;;;;;;12.30;99.90;;;;;;5018051;28;19941;-64
2023/10/28 13:44:34;;;;;;;;;;;12.30;99.90;;;;;;5018654;28;19967;-63
2023/10/28 13:47:02;;;;;;;;;;;12.30;99.90;;;;;;5014423;28;19929;-63
2023/10/28 13:49:30;;;;;;;;;;;12.30;99.90;;;;;;5019477;28;19925;-64
2023/10/28 13:52:00;;;;;;;;;;;12.20;99.90;;;;;;5015539;28;19980;-63
2023/10/28 13:54:28;;;;;;;;;;;12.30;99.90;;;;;;5013311;28;19933;-64
2023/10/28 13:56:57;;;;;;;;;;;12.20;99.90;;;;;;5014118;28;19948;-64
2023/10/28 13:59:25;;;;;;;;;;;12.20;99.90;;;;;;5013738;28;20075;-64
2023/10/28 14:01:53;;;;;;;;;;;12.20;99.90;;;;;;5012549;28;20019;-64
2023/10/28 14:04:21;;;;;;;;;;;12.20;99.90;;;;;;5014040;28;19925;-65
2023/10/28 14:06:49;;;;;;;;;;;12.20;99.90;;;;;;5017058;28;19930;-64
2023/10/28 14:09:16;;;;;;;;;;;12.10;99.90;;;;;;5012651;28;19932;-64
2023/10/28 14:11:45;;;;;;;;;;;12.10;99.90;;;;;;5015391;28;19933;-65
2023/10/28 14:14:14;;;;;;;;;;;12.20;99.90;;;;;;5012108;28;19987;-65
2023/10/28 14:16:42;;;;;;;;;;;12.20;99.90;;;;;;5015233;28;20020;-65
2023/10/28 14:19:10;;;;;;;;;;;12.20;99.90;;;;;;5016536;28;19925;-65
2023/10/28 14:21:38;;;;;;;;;;;12.20;99.90;;;;;;5015832;28;19925;-64
2023/10/28 14:24:06;;;;;;;;;;;12.20;99.90;;;;;;5014984;28;19925;-65